Ruggles, Ohio
Current Conditions -  °F | °C
As of 4:52 AM on Saturday 25 Oct 2014 (Local Time) from KMFD Reporting Station
Clear Clear  
Wind Chill: 46°   Ceiling: Unl
Heat Index: 48°   Visibility: 10mi
Dew Point: 43°   Wind: 5mph
Humidity: 83%   Direction: 220°SW
Pressure: 29.95"   Gusts: NA
Location:  41.1035°N, 82.407°W
Report Text: KMFD 250852Z 22004KT 10SM CLR 09/06 A2995 RMK AO2 SLP141 T00890061 58013
Loading
Personal Weather Stations






























Interactive Weather Map
Tropical Storm Tracking
New forecast layout! Learn more

10-Day Weather Forecast

Advertisements
Track Severe Weather on mobile